Saguaro Natl Park, Arizona
Current Conditions -  °F | °C
As of 4:58 PM on Monday 22 Dec 2014 (Local Time) from KDMA Reporting Station
Clear Clear  
Wind Chill: 61°   Ceiling: Unl
Heat Index: 61°   Visibility: 10mi
Dew Point: 40°   Wind: 8mph
Humidity: 46%   Direction: 300°WNW
Pressure: 29.9"   Gusts: NA
Location:  32.2°N, 110.63°W
Report Text: KDMA 222358Z AUTO 30007KT 10SM CLR 16/05 A2990 RMK AO2 SLP110 T01630045 10174 20128 55009 $
Loading
Personal Weather Stations






























Interactive Weather Map New forecast layout! Learn more

10-Day Weather Forecast

Advertisements
Track Severe Weather on mobile